METAR Data
IDs: Format: Raw Decoded Include TAF

Data at: 1354 UTC 26 Feb 2021

EGCK 261350Z AUTO 22007KT 9999 SCT029/// 10/07 Q1037